Time;durP1;ratioP1;P1;durP2;ratioP2;P2;SDS_P1;SDS_P2;PMS_P1;PMS_P2;Temp;Humidity;BMP_temperature;BMP_pressure;BME280_temperature;BME280_humidity;BME280_pressure;Samples;Min_cycle;Max_cycle;Signal;HPM_P1;HPM_P2
2023/09/16 00:01:51;;;;;;;;;;;;;;;14.06;100.00;97753.75;110362;1242;69102;-71
2023/09/16 00:04:21;;;;;;;;;;;;;;;14.05;100.00;97755.64;110200;1242;59708;-70
2023/09/16 00:06:51;;;;;;;;;;;;;;;14.04;100.00;97751.52;110197;1246;59682;-70
2023/09/16 00:09:21;;;;;;;;;;;;;;;14.02;100.00;97754.65;110226;1243;70442;-69
2023/09/16 00:11:52;;;;;;;;;;;;;;;14.00;100.00;97755.14;110243;1242;69061;-70
2023/09/16 00:14:24;;;;;;;;;;;;;;;13.98;100.00;97751.45;110183;1243;68515;-70
2023/09/16 00:16:55;;;;;;;;;;;;;;;13.95;100.00;97752.53;110242;1240;59666;-71
2023/09/16 00:19:27;;;;;;;;;;;;;;;13.92;100.00;97751.77;110423;1242;59688;-71
2023/09/16 00:21:59;;;;;;;;;;;;;;;13.90;100.00;97748.05;110333;1240;70695;-71
2023/09/16 00:24:29;;;;;;;;;;;;;;;13.86;100.00;97744.70;110313;1242;68498;-70
2023/09/16 00:27:00;;;;;;;;;;;;;;;13.84;100.00;97740.28;110353;1241;69322;-70
2023/09/16 00:29:30;;;;;;;;;;;;;;;13.81;100.00;97741.10;110156;1244;59769;-72
2023/09/16 00:32:04;;;;;;;;;;;;;;;13.80;100.00;97741.70;110196;1240;59624;-71
2023/09/16 00:34:34;;;;;;;;;;;;;;;13.78;100.00;97742.08;110390;1241;71401;-70
2023/09/16 00:37:03;;;;;;;;;;;;;;;13.75;100.00;97744.53;110376;1243;69228;-72
2023/09/16 00:39:38;;;;;;;;;;;;;;;13.72;100.00;97747.02;110405;1240;69390;-70
2023/09/16 00:42:09;;;;;;;;;;;;;;;13.71;100.00;97746.73;110241;1244;59802;-71
2023/09/16 00:44:39;;;;;;;;;;;;;;;13.69;100.00;97747.14;110301;1240;59695;-70
2023/09/16 00:47:11;;;;;;;;;;;;;;;13.66;100.00;97746.82;110334;1240;71215;-70
2023/09/16 00:49:41;;;;;;;;;;;;;;;13.64;100.00;97746.10;110382;1242;69035;-70
2023/09/16 00:52:12;;;;;;;;;;;;;;;13.63;100.00;97748.50;111974;1240;68796;-70
2023/09/16 00:54:44;;;;;;;;;;;;;;;13.61;100.00;97746.57;111743;1240;59757;-71
2023/09/16 00:57:15;;;;;;;;;;;;;;;13.60;100.00;97748.42;110919;1241;59649;-71
2023/09/16 00:59:46;;;;;;;;;;;;;;;13.60;100.00;97749.95;110341;1244;71206;-71
2023/09/16 01:02:17;;;;;;;;;;;;;;;13.59;100.00;97754.39;110434;1242;69517;-71
2023/09/16 01:04:50;;;;;;;;;;;;;;;13.58;100.00;97749.95;110393;1242;69270;-71
2023/09/16 01:07:21;;;;;;;;;;;;;;;13.57;100.00;97755.46;110411;1242;59699;-71
2023/09/16 01:09:52;;;;;;;;;;;;;;;13.55;100.00;97754.25;110329;1243;59699;-71
2023/09/16 01:12:22;;;;;;;;;;;;;;;13.51;100.00;97750.67;110320;1242;70551;-71
2023/09/16 01:14:56;;;;;;;;;;;;;;;13.47;100.00;97752.02;110393;1242;69109;-70
2023/09/16 01:17:33;;;;;;;;;;;;;;;13.45;100.00;97755.66;110371;1241;68394;-71
2023/09/16 01:20:15;;;;;;;;;;;;;;;13.43;100.00;97756.36;110359;1242;59767;-70
2023/09/16 01:22:46;;;;;;;;;;;;;;;13.42;100.00;97756.49;110211;1244;59681;-70
2023/09/16 01:25:17;;;;;;;;;;;;;;;13.40;100.00;97758.17;110201;1242;70501;-72
2023/09/16 01:27:48;;;;;;;;;;;;;;;13.37;100.00;97759.12;110172;1243;69196;-72
2023/09/16 01:30:18;;;;;;;;;;;;;;;13.34;100.00;97761.09;110313;1245;69091;-71
2023/09/16 01:32:48;;;;;;;;;;;;;;;13.30;100.00;97757.56;110341;1242;59741;-69
2023/09/16 01:35:24;;;;;;;;;;;;;;;13.29;100.00;97757.66;110354;1240;59679;-71
2023/09/16 01:37:56;;;;;;;;;;;;;;;13.30;100.00;97760.76;110257;1240;70648;-70
2023/09/16 01:40:28;;;;;;;;;;;;;;;13.30;100.00;97760.58;110359;1241;68845;-70
2023/09/16 01:42:58;;;;;;;;;;;;;;;13.28;100.00;97759.69;110166;1241;67496;-72
2023/09/16 01:45:41;;;;;;;;;;;;;;;13.24;100.00;97755.37;110166;1241;59793;-71
2023/09/16 01:48:16;;;;;;;;;;;;;;;13.19;100.00;97755.42;110394;1242;59681;-71
2023/09/16 01:50:47;;;;;;;;;;;;;;;13.14;100.00;97756.54;110317;1242;70628;-71
2023/09/16 01:53:19;;;;;;;;;;;;;;;13.12;100.00;97757.69;110197;1242;69141;-70
2023/09/16 01:55:49;;;;;;;;;;;;;;;13.11;100.00;97754.45;110219;1241;68439;-71
2023/09/16 01:58:20;;;;;;;;;;;;;;;13.10;100.00;97757.19;110254;1244;59766;-71
2023/09/16 02:00:51;;;;;;;;;;;;;;;13.09;100.00;97760.38;110202;1241;59769;-70
2023/09/16 02:03:22;;;;;;;;;;;;;;;13.08;100.00;97760.85;110437;1242;70539;-71
2023/09/16 02:05:52;;;;;;;;;;;;;;;13.06;100.00;97755.21;110313;1241;69179;-70
2023/09/16 02:08:24;;;;;;;;;;;;;;;13.06;100.00;97759.23;110294;1240;68573;-70
2023/09/16 02:11:01;;;;;;;;;;;;;;;13.06;100.00;97759.73;110421;1242;59724;-71
2023/09/16 02:13:35;;;;;;;;;;;;;;;13.06;100.00;97759.09;110256;1243;59682;-72
2023/09/16 02:16:11;;;;;;;;;;;;;;;13.05;100.00;97758.27;110283;1241;71431;-71
2023/09/16 02:18:41;;;;;;;;;;;;;;;13.05;100.00;97761.28;110218;1242;69066;-71
2023/09/16 02:21:15;;;;;;;;;;;;;;;13.05;100.00;97761.45;110295;1243;68328;-71
2023/09/16 02:23:45;;;;;;;;;;;;;;;13.06;100.00;97762.42;110361;1241;59666;-71
2023/09/16 02:26:15;;;;;;;;;;;;;;;13.05;100.00;97762.30;110187;1244;59667;-71
2023/09/16 02:28:44;;;;;;;;;;;;;;;13.05;100.00;97764.60;110391;1242;70707;-71
2023/09/16 02:31:15;;;;;;;;;;;;;;;13.05;100.00;97765.08;110385;1242;69239;-70
2023/09/16 02:33:45;;;;;;;;;;;;;;;13.07;100.00;97765.11;110134;1244;68268;-70
2023/09/16 02:36:18;;;;;;;;;;;;;;;13.09;100.00;97769.70;110154;1240;59670;-71
2023/09/16 02:38:49;;;;;;;;;;;;;;;13.09;100.00;97771.98;110155;1243;59681;-71
2023/09/16 02:41:20;;;;;;;;;;;;;;;13.09;100.00;97775.64;110270;1243;71030;-70
2023/09/16 02:43:50;;;;;;;;;;;;;;;13.08;100.00;97771.84;110241;1245;68256;-70
2023/09/16 02:46:21;;;;;;;;;;;;;;;13.10;100.00;97777.34;110263;1245;68508;-72
2023/09/16 02:48:50;;;;;;;;;;;;;;;13.09;100.00;97773.39;110362;1241;59670;-71
2023/09/16 02:51:20;;;;;;;;;;;;;;;13.09;100.00;97776.15;110113;1244;59750;-70
2023/09/16 02:53:54;;;;;;;;;;;;;;;13.09;100.00;97775.45;110238;1242;71498;-70
2023/09/16 02:56:26;;;;;;;;;;;;;;;13.10;100.00;97776.11;110155;1244;70204;-71
2023/09/16 02:58:57;;;;;;;;;;;;;;;13.10;100.00;97779.55;110294;1244;68437;-71
2023/09/16 03:01:28;;;;;;;;;;;;;;;13.08;100.00;97782.33;110198;1240;59748;-69
2023/09/16 03:04:01;;;;;;;;;;;;;;;13.06;100.00;97786.17;110245;1240;59738;-69
2023/09/16 03:06:31;;;;;;;;;;;;;;;12.99;100.00;97787.27;110155;1241;70591;-70
2023/09/16 03:09:03;;;;;;;;;;;;;;;12.92;100.00;97784.48;110299;1245;69239;-71
2023/09/16 03:11:35;;;;;;;;;;;;;;;12.89;100.00;97782.77;110120;1245;69266;-72
2023/09/16 03:14:05;;;;;;;;;;;;;;;12.86;100.00;97783.52;110245;1241;59738;-70
2023/09/16 03:16:35;;;;;;;;;;;;;;;12.85;100.00;97783.23;110378;1242;59714;-71
2023/09/16 03:19:05;;;;;;;;;;;;;;;12.85;100.00;97784.33;110144;1244;71470;-71
2023/09/16 03:21:34;;;;;;;;;;;;;;;12.85;100.00;97784.50;110284;1247;68453;-72
2023/09/16 03:24:07;;;;;;;;;;;;;;;12.83;100.00;97784.48;110137;1240;69120;-71
2023/09/16 03:26:40;;;;;;;;;;;;;;;12.84;100.00;97787.36;110316;1241;59763;-71
2023/09/16 03:29:12;;;;;;;;;;;;;;;12.84;100.00;97786.13;110191;1244;59729;-70
2023/09/16 03:31:41;;;;;;;;;;;;;;;12.84;100.00;97790.10;110266;1242;71264;-71
2023/09/16 03:34:18;;;;;;;;;;;;;;;12.87;100.00;97796.56;110256;1242;69084;-71
2023/09/16 03:36:47;;;;;;;;;;;;;;;12.86;100.00;97797.37;110376;1242;69131;-71
2023/09/16 03:39:16;;;;;;;;;;;;;;;12.82;100.00;97795.73;110358;1242;59654;-70
2023/09/16 03:41:46;;;;;;;;;;;;;;;12.80;100.00;97800.45;110370;1242;59689;-70
2023/09/16 03:44:17;;;;;;;;;;;;;;;12.80;100.00;97804.84;110398;1240;71571;-70
2023/09/16 03:46:45;;;;;;;;;;;;;;;12.79;100.00;97805.55;110237;1244;69105;-70
2023/09/16 03:49:14;;;;;;;;;;;;;;;12.79;100.00;97806.45;110146;1244;68512;-71
2023/09/16 03:51:46;;;;;;;;;;;;;;;12.77;100.00;97808.33;110238;1245;59707;-71
2023/09/16 03:54:18;;;;;;;;;;;;;;;12.79;100.00;97808.34;110252;1244;59702;-70
2023/09/16 03:56:49;;;;;;;;;;;;;;;12.80;100.00;97808.61;110171;1240;71689;-70
2023/09/16 03:59:19;;;;;;;;;;;;;;;12.82;100.00;97813.20;110167;1244;69296;-71
2023/09/16 04:01:49;;;;;;;;;;;;;;;12.83;100.00;97816.33;110335;1241;68982;-69
2023/09/16 04:04:19;;;;;;;;;;;;;;;12.81;100.00;97815.77;110182;1241;59753;-70
2023/09/16 04:06:50;;;;;;;;;;;;;;;12.81;100.00;97811.38;110154;1240;59756;-70
2023/09/16 04:09:19;;;;;;;;;;;;;;;12.83;100.00;97814.39;110259;1242;70639;-70
2023/09/16 04:11:49;;;;;;;;;;;;;;;12.85;100.00;97813.88;110252;1242;69728;-70
2023/09/16 04:14:20;;;;;;;;;;;;;;;12.86;100.00;97813.23;110245;1241;69009;-70
2023/09/16 04:16:49;;;;;;;;;;;;;;;12.90;100.00;97810.69;110246;1242;59675;-70
2023/09/16 04:19:20;;;;;;;;;;;;;;;12.98;100.00;97813.39;110214;1241;59700;-70
2023/09/16 04:21:51;;;;;;;;;;;;;;;13.05;100.00;97818.98;110206;1242;71249;-70
2023/09/16 04:24:21;;;;;;;;;;;;;;;13.14;100.00;97821.98;110171;1241;69236;-70
2023/09/16 04:26:51;;;;;;;;;;;;;;;13.22;100.00;97828.50;110219;1242;69102;-70
2023/09/16 04:29:21;;;;;;;;;;;;;;;13.30;100.00;97830.20;110301;1240;60009;-70
2023/09/16 04:31:51;;;;;;;;;;;;;;;13.39;100.00;97828.11;110270;1242;59743;-69
2023/09/16 04:34:22;;;;;;;;;;;;;;;13.46;100.00;97829.80;110197;1244;70262;-70
2023/09/16 04:36:54;;;;;;;;;;;;;;;13.54;100.00;97831.66;110185;1242;69342;-71
2023/09/16 04:39:24;;;;;;;;;;;;;;;13.62;100.00;97834.91;110313;1241;69260;-70
2023/09/16 04:41:53;;;;;;;;;;;;;;;13.68;100.00;97834.92;110189;1241;59729;-71
2023/09/16 04:44:23;;;;;;;;;;;;;;;13.77;100.00;97835.09;110295;1241;59708;-71
2023/09/16 04:46:53;;;;;;;;;;;;;;;13.90;100.00;97837.38;110237;1242;71707;-69
2023/09/16 04:49:24;;;;;;;;;;;;;;;14.02;100.00;97840.33;110264;1241;68482;-69
2023/09/16 04:51:54;;;;;;;;;;;;;;;14.11;100.00;97844.70;110139;1245;69256;-69
2023/09/16 04:54:24;;;;;;;;;;;;;;;14.14;100.00;97844.75;110157;1243;59678;-69
2023/09/16 04:56:55;;;;;;;;;;;;;;;14.14;100.00;97842.88;110253;1242;59734;-70
2023/09/16 04:59:24;;;;;;;;;;;;;;;14.14;100.00;97840.06;110233;1241;71403;-69
2023/09/16 05:01:54;;;;;;;;;;;;;;;14.15;100.00;97838.04;110236;1242;69242;-71
2023/09/16 05:04:23;;;;;;;;;;;;;;;14.25;100.00;97840.39;110326;1241;69839;-69
2023/09/16 05:06:53;;;;;;;;;;;;;;;14.40;100.00;97841.94;110234;1242;59743;-70
2023/09/16 05:09:22;;;;;;;;;;;;;;;14.58;100.00;97843.30;110188;1243;60062;-71
2023/09/16 05:11:52;;;;;;;;;;;;;;;14.80;100.00;97841.30;110228;1242;70661;-70
2023/09/16 05:14:21;;;;;;;;;;;;;;;15.03;100.00;97843.42;110200;1243;69664;-71
2023/09/16 05:16:50;;;;;;;;;;;;;;;15.28;100.00;97843.77;110351;1242;68490;-69
2023/09/16 05:19:20;;;;;;;;;;;;;;;15.42;100.00;97840.30;110206;1242;59772;-69
2023/09/16 05:21:50;;;;;;;;;;;;;;;15.52;100.00;97842.30;110198;1240;59750;-69
2023/09/16 05:24:20;;;;;;;;;;;;;;;15.66;100.00;97837.04;110081;1245;70972;-68
2023/09/16 05:26:49;;;;;;;;;;;;;;;15.77;100.00;97844.71;110209;1248;68492;-71
2023/09/16 05:29:18;;;;;;;;;;;;;;;15.84;100.00;97846.95;110263;1240;68610;-71
2023/09/16 05:31:48;;;;;;;;;;;;;;;15.89;100.00;97847.58;110315;1241;59649;-70
2023/09/16 05:34:17;;;;;;;;;;;;;;;16.04;100.00;97854.09;110174;1240;59739;-70
2023/09/16 05:36:47;;;;;;;;;;;;;;;16.12;100.00;97855.33;110302;1240;71432;-71
2023/09/16 05:39:17;;;;;;;;;;;;;;;16.18;100.00;97858.29;110297;1241;68669;-70
2023/09/16 05:41:48;;;;;;;;;;;;;;;16.29;100.00;97857.87;110202;1245;68566;-70
2023/09/16 05:44:21;;;;;;;;;;;;;;;16.41;100.00;97857.71;110259;1241;59675;-71
2023/09/16 05:46:50;;;;;;;;;;;;;;;16.53;100.00;97857.30;110390;1240;59633;-70
2023/09/16 05:49:19;;;;;;;;;;;;;;;16.52;100.00;97858.27;110297;1241;71594;-69
2023/09/16 05:51:50;;;;;;;;;;;;;;;16.43;100.00;97862.14;110249;1242;68555;-70
2023/09/16 05:54:20;;;;;;;;;;;;;;;16.40;100.00;97862.05;110261;1240;68825;-71
2023/09/16 05:56:49;;;;;;;;;;;;;;;16.40;100.00;97865.38;110314;1241;59742;-70
2023/09/16 05:59:17;;;;;;;;;;;;;;;16.43;100.00;97865.80;110353;1242;59689;-69
2023/09/16 06:01:49;;;;;;;;;;;;;;;16.44;100.00;97865.47;110346;1244;71482;-70
2023/09/16 06:04:18;;;;;;;;;;;;;;;16.51;100.00;97866.59;110263;1241;68646;-71
2023/09/16 06:06:49;;;;;;;;;;;;;;;16.52;100.00;97865.98;110276;1242;68511;-71
2023/09/16 06:09:19;;;;;;;;;;;;;;;16.61;100.00;97865.03;110398;1242;59797;-71
2023/09/16 06:11:48;;;;;;;;;;;;;;;16.62;100.00;97862.61;110337;1245;59695;-72
2023/09/16 06:14:17;;;;;;;;;;;;;;;16.68;100.00;97864.19;110377;1242;72127;-71
2023/09/16 06:16:46;;;;;;;;;;;;;;;16.81;100.00;97867.80;110375;1241;68229;-71
2023/09/16 06:19:16;;;;;;;;;;;;;;;16.95;100.00;97865.67;110350;1242;69280;-72
2023/09/16 06:21:45;;;;;;;;;;;;;;;17.12;100.00;97865.88;110364;1241;59783;-70
2023/09/16 06:24:14;;;;;;;;;;;;;;;17.27;100.00;97861.29;110217;1242;59665;-71
2023/09/16 06:26:43;;;;;;;;;;;;;;;17.45;100.00;97864.68;110398;1242;71394;-71
2023/09/16 06:29:14;;;;;;;;;;;;;;;17.70;100.00;97861.27;110294;1242;69251;-69
2023/09/16 06:31:43;;;;;;;;;;;;;;;17.93;100.00;97862.33;110181;1245;68617;-71
2023/09/16 06:34:12;;;;;;;;;;;;;;;18.13;100.00;97861.75;110383;1242;59662;-72
2023/09/16 06:36:41;;;;;;;;;;;;;;;18.46;100.00;97862.46;110220;1241;59720;-70
2023/09/16 06:39:11;;;;;;;;;;;;;;;18.76;100.00;97865.46;110219;1241;71364;-71
2023/09/16 06:41:40;;;;;;;;;;;;;;;18.99;100.00;97868.04;110323;1241;69213;-71
2023/09/16 06:44:14;;;;;;;;;;;;;;;19.22;100.00;97869.27;110363;1241;68514;-71
2023/09/16 06:46:43;;;;;;;;;;;;;;;19.45;99.91;97867.58;110259;1241;59671;-70
2023/09/16 06:49:12;;;;;;;;;;;;;;;19.70;99.10;97869.30;110383;1241;59734;-70
2023/09/16 06:51:42;;;;;;;;;;;;;;;19.98;98.11;97867.33;110242;1242;71450;-70
2023/09/16 06:54:10;;;;;;;;;;;;;;;20.21;97.83;97871.05;110276;1242;69857;-71
2023/09/16 06:56:39;;;;;;;;;;;;;;;20.31;89.46;97874.98;110444;1242;69888;-72
2023/09/16 06:59:08;;;;;;;;;;;;;;;20.27;90.32;97875.23;110302;1243;59703;-72
2023/09/16 07:01:49;;;;;;;;;;;;;;;20.31;90.13;97875.46;110221;1242;59637;-70
2023/09/16 07:04:19;;;;;;;;;;;;;;;20.34;90.75;97876.05;110277;1240;71212;-72
2023/09/16 07:06:48;;;;;;;;;;;;;;;20.43;88.56;97875.46;110302;1245;70154;-71
2023/09/16 07:09:17;;;;;;;;;;;;;;;20.45;89.68;97876.92;110279;1248;69315;-70
2023/09/16 07:11:46;;;;;;;;;;;;;;;20.58;88.10;97876.59;110439;1241;59722;-66
2023/09/16 07:14:15;;;;;;;;;;;;;;;20.79;83.50;97879.64;110248;1241;60150;-70
2023/09/16 07:16:44;;;;;;;;;;;;;;;20.95;80.68;97881.14;110253;1242;71316;-71
2023/09/16 07:19:15;;;;;;;;;;;;;;;21.48;81.63;97881.66;110425;1241;67856;-71
2023/09/16 07:21:44;;;;;;;;;;;;;;;21.93;76.53;97876.94;110428;1241;69163;-70
2023/09/16 07:24:13;;;;;;;;;;;;;;;22.27;72.93;97880.84;110364;1240;59755;-71
2023/09/16 07:26:45;;;;;;;;;;;;;;;22.65;76.22;97883.83;110373;1242;59634;-70
2023/09/16 07:29:13;;;;;;;;;;;;;;;22.68;67.44;97882.08;110372;1242;71965;-69
2023/09/16 07:31:42;;;;;;;;;;;;;;;22.90;68.34;97881.51;110250;1242;69661;-68
2023/09/16 07:34:12;;;;;;;;;;;;;;;22.94;66.10;97882.28;110234;1242;68514;-69
2023/09/16 07:36:42;;;;;;;;;;;;;;;23.32;66.60;97882.27;110323;1241;59681;-69
2023/09/16 07:39:11;;;;;;;;;;;;;;;23.73;68.41;97879.04;110247;1242;59734;-70
2023/09/16 07:41:40;;;;;;;;;;;;;;;24.24;64.15;97881.55;110213;1240;71981;-70
2023/09/16 07:44:10;;;;;;;;;;;;;;;24.70;64.69;97884.41;110245;1242;70057;-69
2023/09/16 07:46:39;;;;;;;;;;;;;;;24.86;61.35;97885.15;110323;1241;69314;-71
2023/09/16 07:49:08;;;;;;;;;;;;;;;25.01;59.89;97882.02;110424;1240;59747;-62
2023/09/16 07:51:39;;;;;;;;;;;;;;;25.62;63.27;97882.44;110273;1242;59687;-64
2023/09/16 07:54:09;;;;;;;;;;;;;;;26.14;60.07;97879.29;110313;1242;71425;-63
2023/09/16 07:56:38;;;;;;;;;;;;;;;26.54;56.18;97878.91;110279;1242;69187;-62
2023/09/16 07:59:07;;;;;;;;;;;;;;;26.80;56.29;97880.63;110276;1242;69257;-64
2023/09/16 08:01:37;;;;;;;;;;;;;;;27.37;57.89;97879.82;110282;1242;59666;-62
2023/09/16 08:04:06;;;;;;;;;;;;;;;27.72;54.10;97880.14;110372;1240;60115;-63
2023/09/16 08:06:36;;;;;;;;;;;;;;;28.23;54.54;97881.23;110231;1241;72352;-63
2023/09/16 08:09:05;;;;;;;;;;;;;;;28.44;51.65;97877.14;110250;1241;68564;-63
2023/09/16 08:11:35;;;;;;;;;;;;;;;28.72;51.76;97881.34;110234;1241;69521;-64
2023/09/16 08:14:04;;;;;;;;;;;;;;;28.92;49.43;97876.34;110249;1242;59721;-64
2023/09/16 08:16:33;;;;;;;;;;;;;;;28.78;48.12;97877.90;110218;1242;59712;-64
2023/09/16 08:19:03;;;;;;;;;;;;;;;29.22;50.45;97882.80;110212;1242;71877;-64
2023/09/16 08:21:35;;;;;;;;;;;;;;;29.60;48.01;97873.80;110241;1242;69213;-63
2023/09/16 08:24:05;;;;;;;;;;;;;;;30.09;46.97;97869.40;110215;1243;69909;-63
2023/09/16 08:26:34;;;;;;;;;;;;;;;30.24;44.84;97863.92;110257;1242;59737;-61
2023/09/16 08:29:03;;;;;;;;;;;;;;;30.20;44.02;97865.00;110253;1243;59741;-65
2023/09/16 08:31:33;;;;;;;;;;;;;;;30.63;45.43;97866.76;110246;1242;71777;-64
2023/09/16 08:34:02;;;;;;;;;;;;;;;30.83;44.50;97860.98;110217;1249;69761;-62
2023/09/16 08:36:31;;;;;;;;;;;;;;;30.20;43.09;97863.42;110215;1242;69897;-63
2023/09/16 08:39:01;;;;;;;;;;;;;;;30.12;43.34;97861.83;109749;1245;506768;-62
2023/09/16 08:41:36;;;;;;;;;;;;;;;30.14;43.27;97863.29;110186;1242;59694;-62
2023/09/16 08:44:08;;;;;;;;;;;;;;;30.27;42.69;97860.50;110188;1240;71394;-64
2023/09/16 08:46:41;;;;;;;;;;;;;;;30.56;43.04;97859.16;110232;1242;69787;-63
2023/09/16 08:49:12;;;;;;;;;;;;;;;30.69;41.44;97859.57;110206;1242;69828;-63
2023/09/16 08:51:43;;;;;;;;;;;;;;;30.61;42.22;97857.34;110232;1241;59661;-64
2023/09/16 08:54:14;;;;;;;;;;;;;;;30.41;41.47;97857.77;110282;1243;59808;-62
2023/09/16 08:56:43;;;;;;;;;;;;;;;30.33;41.85;97854.95;110269;1242;72445;-64
2023/09/16 08:59:13;;;;;;;;;;;;;;;30.39;41.88;97855.34;110239;1242;68324;-62
2023/09/16 09:01:42;;;;;;;;;;;;;;;30.50;41.51;97854.30;110273;1242;70342;-62
2023/09/16 09:04:12;;;;;;;;;;;;;;;30.03;41.69;97857.56;110242;1241;59787;-63
2023/09/16 09:06:42;;;;;;;;;;;;;;;29.64;42.58;97860.45;110235;1242;59625;-61
2023/09/16 09:09:11;;;;;;;;;;;;;;;29.44;43.32;97856.85;110195;1248;71603;-61
2023/09/16 09:11:41;;;;;;;;;;;;;;;29.46;43.68;97856.14;110255;1242;69784;-60
2023/09/16 09:14:14;;;;;;;;;;;;;;;29.32;44.05;97858.95;110294;1242;68325;-62
2023/09/16 09:16:44;;;;;;;;;;;;;;;29.46;43.97;97861.70;110288;1242;59750;-62
2023/09/16 09:19:14;;;;;;;;;;;;;;;29.73;43.89;97863.33;110250;1242;59640;-62
2023/09/16 09:21:43;;;;;;;;;;;;;;;30.22;42.76;97853.34;110266;1242;71264;-62
2023/09/16 09:24:13;;;;;;;;;;;;;;;30.59;42.31;97853.04;110300;1240;68583;-62
2023/09/16 09:26:42;;;;;;;;;;;;;;;30.93;41.18;97852.06;110268;1242;69306;-62
2023/09/16 09:29:13;;;;;;;;;;;;;;;31.16;41.09;97850.91;110266;1249;59686;-61
2023/09/16 09:31:42;;;;;;;;;;;;;;;31.42;40.42;97848.30;110290;1242;59738;-64
2023/09/16 09:34:18;;;;;;;;;;;;;;;31.40;40.66;97852.14;110278;1242;71535;-63
2023/09/16 09:36:47;;;;;;;;;;;;;;;31.22;39.64;97844.36;110264;1241;68474;-63
2023/09/16 09:39:17;;;;;;;;;;;;;;;31.24;40.10;97841.77;110238;1243;69293;-62
2023/09/16 09:41:46;;;;;;;;;;;;;;;31.66;40.18;97840.38;110283;1241;59709;-62
2023/09/16 09:44:15;;;;;;;;;;;;;;;32.01;39.85;97834.95;110300;1242;59664;-63
2023/09/16 09:46:45;;;;;;;;;;;;;;;32.30;38.37;97834.29;110309;1242;71787;-62
2023/09/16 09:49:15;;;;;;;;;;;;;;;32.08;37.00;97832.06;110273;1242;69858;-64
2023/09/16 09:51:47;;;;;;;;;;;;;;;32.07;36.39;97828.52;110339;1242;69261;-63
2023/09/16 09:54:17;;;;;;;;;;;;;;;31.88;37.11;97833.85;110361;1243;59693;-64
2023/09/16 09:56:47;;;;;;;;;;;;;;;31.66;36.90;97832.52;110304;1242;60123;-63
2023/09/16 09:59:16;;;;;;;;;;;;;;;31.33;37.10;97829.20;110342;1242;70844;-63
2023/09/16 10:01:45;;;;;;;;;;;;;;;31.07;37.63;97829.13;110278;1242;69700;-61
2023/09/16 10:04:15;;;;;;;;;;;;;;;30.99;38.42;97826.71;110297;1242;68565;-61
2023/09/16 10:06:45;;;;;;;;;;;;;;;30.89;38.73;97825.92;110268;1242;59683;-62
2023/09/16 10:09:15;;;;;;;;;;;;;;;30.94;38.66;97827.69;110272;1242;59766;-62
2023/09/16 10:11:44;;;;;;;;;;;;;;;30.93;38.16;97821.95;110306;1242;70876;-63
2023/09/16 10:14:14;;;;;;;;;;;;;;;30.96;38.49;97824.61;110300;1241;68919;-62
2023/09/16 10:16:43;;;;;;;;;;;;;;;31.19;38.05;97819.16;110259;1241;69839;-62
2023/09/16 10:19:12;;;;;;;;;;;;;;;31.56;38.28;97820.20;110199;1241;59731;-63
2023/09/16 10:21:45;;;;;;;;;;;;;;;31.79;39.20;97819.95;110255;1241;59686;-64
2023/09/16 10:24:14;;;;;;;;;;;;;;;32.52;38.26;97818.55;110261;1241;70665;-63
2023/09/16 10:26:43;;;;;;;;;;;;;;;32.40;37.47;97813.38;110259;1241;69701;-64
2023/09/16 10:29:13;;;;;;;;;;;;;;;32.58;37.49;97815.48;110255;1242;69175;-62
2023/09/16 10:31:43;;;;;;;;;;;;;;;32.80;36.94;97817.05;110279;1242;59725;-62
2023/09/16 10:34:12;;;;;;;;;;;;;;;32.95;36.10;97816.35;110250;1241;59740;-61
2023/09/16 10:36:42;;;;;;;;;;;;;;;32.48;35.69;97815.74;110287;1242;70526;-63
2023/09/16 10:39:15;;;;;;;;;;;;;;;32.37;36.55;97809.61;110289;1242;70301;-63
2023/09/16 10:41:45;;;;;;;;;;;;;;;32.18;36.56;97810.09;110274;1241;68465;-63
2023/09/16 10:44:15;;;;;;;;;;;;;;;32.16;36.46;97812.90;110267;1243;60147;-64
2023/09/16 10:46:45;;;;;;;;;;;;;;;31.89;36.45;97811.53;110379;1243;59668;-63
2023/09/16 10:49:15;;;;;;;;;;;;;;;31.01;37.39;97817.39;110327;1242;71460;-62
2023/09/16 10:51:45;;;;;;;;;;;;;;;30.61;38.23;97818.34;110291;1242;69678;-62
2023/09/16 10:54:34;;;;;;;;;;;;;;;30.30;39.18;97816.11;110311;1242;69896;-63
2023/09/16 10:57:10;;;;;;;;;;;;;;;29.80;40.03;97817.43;110186;1242;59804;-64
2023/09/16 10:59:40;;;;;;;;;;;;;;;29.23;41.04;97820.42;110246;1242;59721;-62
2023/09/16 11:02:18;;;;;;;;;;;;;;;28.73;41.67;97820.09;110297;1242;71270;-63
2023/09/16 11:04:47;;;;;;;;;;;;;;;28.44;42.47;97823.91;110200;1242;69106;-62
2023/09/16 11:07:17;;;;;;;;;;;;;;;28.68;42.35;97820.95;110260;1242;68894;-62
2023/09/16 11:09:48;;;;;;;;;;;;;;;29.12;41.92;97820.81;110292;1242;59696;-64
2023/09/16 11:12:18;;;;;;;;;;;;;;;29.17;42.22;97817.67;110283;1243;59728;-61
2023/09/16 11:14:49;;;;;;;;;;;;;;;29.08;42.24;97815.31;110298;1241;71346;-64
2023/09/16 11:17:21;;;;;;;;;;;;;;;29.40;41.58;97808.67;110313;1242;69889;-63
2023/09/16 11:19:51;;;;;;;;;;;;;;;29.86;41.08;97803.27;110310;1241;69375;-63
2023/09/16 11:22:21;;;;;;;;;;;;;;;29.87;41.09;97802.02;110287;1242;59738;-62
2023/09/16 11:24:51;;;;;;;;;;;;;;;29.91;40.69;97797.47;110187;1241;59737;-62
2023/09/16 11:27:21;;;;;;;;;;;;;;;29.86;40.18;97800.17;110242;1242;71965;-62
2023/09/16 11:29:52;;;;;;;;;;;;;;;30.14;39.68;97789.66;110296;1241;68782;-62
2023/09/16 11:32:21;;;;;;;;;;;;;;;30.10;39.45;97796.16;110243;1243;70180;-62
2023/09/16 11:34:58;;;;;;;;;;;;;;;30.30;39.10;97790.31;110266;1242;59742;-62
2023/09/16 11:37:30;;;;;;;;;;;;;;;30.73;37.77;97789.59;110275;1242;59605;-61
2023/09/16 11:40:01;;;;;;;;;;;;;;;30.94;37.43;97790.38;110274;1242;70771;-62
2023/09/16 11:42:30;;;;;;;;;;;;;;;30.96;36.68;97793.45;110348;1241;69148;-62
2023/09/16 11:44:59;;;;;;;;;;;;;;;31.08;37.06;97791.52;110303;1242;70462;-62
2023/09/16 11:47:30;;;;;;;;;;;;;;;31.33;36.86;97790.92;110287;1242;59663;-62
2023/09/16 11:49:58;;;;;;;;;;;;;;;31.75;36.40;97783.42;110210;1242;59705;-62
2023/09/16 11:52:28;;;;;;;;;;;;;;;31.84;36.16;97783.39;110284;1244;71943;-61
2023/09/16 11:54:57;;;;;;;;;;;;;;;31.77;36.03;97784.35;110292;1246;69813;-62
2023/09/16 11:57:28;;;;;;;;;;;;;;;31.49;36.34;97781.96;110244;1243;70240;-63
2023/09/16 11:59:57;;;;;;;;;;;;;;;31.58;36.64;97779.02;110286;1241;59736;-64
2023/09/16 12:02:27;;;;;;;;;;;;;;;31.90;36.53;97780.16;110306;1241;59692;-62
2023/09/16 12:04:58;;;;;;;;;;;;;;;32.27;36.25;97778.34;110281;1242;71393;-63
2023/09/16 12:07:27;;;;;;;;;;;;;;;32.67;35.63;97771.08;110219;1242;70321;-61
2023/09/16 12:09:58;;;;;;;;;;;;;;;33.03;35.40;97771.11;110249;1242;69864;-63
2023/09/16 12:12:29;;;;;;;;;;;;;;;33.18;34.29;97776.31;110231;1245;59789;-62
2023/09/16 12:15:00;;;;;;;;;;;;;;;33.09;34.31;97773.54;110247;1242;59619;-62
2023/09/16 12:17:29;;;;;;;;;;;;;;;33.23;34.58;97771.02;110261;1241;71384;-62
2023/09/16 12:20:00;;;;;;;;;;;;;;;33.22;34.61;97766.95;110228;1242;68438;-63
2023/09/16 12:22:29;;;;;;;;;;;;;;;33.69;34.03;97757.29;110252;1241;69859;-63
2023/09/16 12:24:58;;;;;;;;;;;;;;;33.48;33.52;97754.70;110236;1245;60083;-63
2023/09/16 12:27:27;;;;;;;;;;;;;;;32.79;34.44;97755.77;110274;1242;59647;-63
2023/09/16 12:29:56;;;;;;;;;;;;;;;31.93;36.14;97753.51;110265;1242;71996;-62
2023/09/16 12:32:25;;;;;;;;;;;;;;;31.53;36.63;97763.41;110214;1242;69439;-61
2023/09/16 12:35:09;;;;;;;;;;;;;;;31.21;37.02;97761.55;110223;1242;69090;-61
2023/09/16 12:37:39;;;;;;;;;;;;;;;30.83;37.86;97759.50;110210;1241;59804;-61
2023/09/16 12:40:09;;;;;;;;;;;;;;;30.19;39.23;97755.80;110240;1241;59705;-64
2023/09/16 12:42:38;;;;;;;;;;;;;;;29.65;40.69;97752.71;110238;1242;71948;-62
2023/09/16 12:45:07;;;;;;;;;;;;;;;29.65;40.80;97755.11;110248;1247;69892;-63
2023/09/16 12:47:36;;;;;;;;;;;;;;;29.53;40.40;97757.64;110228;1241;69724;-61